sensor_id;sensor_type;location;lat;lon;timestamp;P1;durP1;ratioP1;P2;durP2;ratioP2
55067;SDS011;40965;52.368;9.712;2023-04-15T00:01:57;4.13;;;3.65;;
55067;SDS011;40965;52.368;9.712;2023-04-15T00:04:24;4.63;;;3.80;;
55067;SDS011;40965;52.368;9.712;2023-04-15T00:06:52;4.25;;;3.50;;
55067;SDS011;40965;52.368;9.712;2023-04-15T00:09:19;5.25;;;4.40;;
55067;SDS011;40965;52.368;9.712;2023-04-15T00:11:46;6.57;;;4.40;;
55067;SDS011;40965;52.368;9.712;2023-04-15T00:14:13;4.13;;;3.72;;
55067;SDS011;40965;52.368;9.712;2023-04-15T00:16:40;5.80;;;3.80;;
55067;SDS011;40965;52.368;9.712;2023-04-15T00:19:06;4.57;;;3.90;;
55067;SDS011;40965;52.368;9.712;2023-04-15T00:21:33;5.72;;;4.13;;
55067;SDS011;40965;52.368;9.712;2023-04-15T00:23:59;4.72;;;4.13;;
55067;SDS011;40965;52.368;9.712;2023-04-15T00:26:27;4.70;;;3.78;;
55067;SDS011;40965;52.368;9.712;2023-04-15T00:28:54;3.97;;;3.50;;
55067;SDS011;40965;52.368;9.712;2023-04-15T00:31:20;3.60;;;3.30;;
55067;SDS011;40965;52.368;9.712;2023-04-15T00:33:47;6.13;;;4.43;;
55067;SDS011;40965;52.368;9.712;2023-04-15T00:36:13;5.53;;;4.50;;
55067;SDS011;40965;52.368;9.712;2023-04-15T00:38:40;6.32;;;3.85;;
55067;SDS011;40965;52.368;9.712;2023-04-15T00:41:07;6.57;;;4.50;;
55067;SDS011;40965;52.368;9.712;2023-04-15T00:43:35;4.30;;;3.78;;
55067;SDS011;40965;52.368;9.712;2023-04-15T00:46:03;6.55;;;3.70;;
55067;SDS011;40965;52.368;9.712;2023-04-15T00:48:30;5.72;;;4.60;;
55067;SDS011;40965;52.368;9.712;2023-04-15T00:50:57;6.13;;;5.13;;
55067;SDS011;40965;52.368;9.712;2023-04-15T00:53:23;5.30;;;3.50;;
55067;SDS011;40965;52.368;9.712;2023-04-15T00:55:50;8.38;;;3.92;;
55067;SDS011;40965;52.368;9.712;2023-04-15T00:58:17;5.07;;;4.60;;
55067;SDS011;40965;52.368;9.712;2023-04-15T01:00:43;8.95;;;4.60;;
55067;SDS011;40965;52.368;9.712;2023-04-15T01:03:11;5.30;;;4.32;;
55067;SDS011;40965;52.368;9.712;2023-04-15T01:05:37;3.92;;;3.60;;
55067;SDS011;40965;52.368;9.712;2023-04-15T01:08:05;4.55;;;4.05;;
55067;SDS011;40965;52.368;9.712;2023-04-15T01:10:32;7.60;;;5.30;;
55067;SDS011;40965;52.368;9.712;2023-04-15T01:12:59;6.93;;;5.35;;
55067;SDS011;40965;52.368;9.712;2023-04-15T01:15:26;7.30;;;4.80;;
55067;SDS011;40965;52.368;9.712;2023-04-15T01:17:52;10.27;;;5.40;;
55067;SDS011;40965;52.368;9.712;2023-04-15T01:20:19;6.65;;;5.25;;
55067;SDS011;40965;52.368;9.712;2023-04-15T01:22:46;7.50;;;5.07;;
55067;SDS011;40965;52.368;9.712;2023-04-15T01:25:17;9.98;;;5.88;;
55067;SDS011;40965;52.368;9.712;2023-04-15T01:27:47;8.95;;;5.45;;
55067;SDS011;40965;52.368;9.712;2023-04-15T01:30:13;9.30;;;6.15;;
55067;SDS011;40965;52.368;9.712;2023-04-15T01:32:40;9.70;;;6.20;;
55067;SDS011;40965;52.368;9.712;2023-04-15T01:35:07;8.30;;;5.32;;
55067;SDS011;40965;52.368;9.712;2023-04-15T01:37:33;11.30;;;7.22;;
55067;SDS011;40965;52.368;9.712;2023-04-15T01:40:00;7.97;;;5.13;;
55067;SDS011;40965;52.368;9.712;2023-04-15T01:42:27;7.05;;;6.35;;
55067;SDS011;40965;52.368;9.712;2023-04-15T01:44:54;8.15;;;5.45;;
55067;SDS011;40965;52.368;9.712;2023-04-15T01:47:20;8.00;;;5.78;;
55067;SDS011;40965;52.368;9.712;2023-04-15T01:49:49;10.68;;;6.25;;
55067;SDS011;40965;52.368;9.712;2023-04-15T01:52:15;9.07;;;6.35;;
55067;SDS011;40965;52.368;9.712;2023-04-15T01:54:42;9.88;;;5.97;;
55067;SDS011;40965;52.368;9.712;2023-04-15T01:57:09;8.35;;;5.95;;
55067;SDS011;40965;52.368;9.712;2023-04-15T01:59:35;12.85;;;6.50;;
55067;SDS011;40965;52.368;9.712;2023-04-15T02:02:02;8.15;;;5.53;;
55067;SDS011;40965;52.368;9.712;2023-04-15T02:04:29;9.07;;;6.28;;
55067;SDS011;40965;52.368;9.712;2023-04-15T02:06:56;7.75;;;6.05;;
55067;SDS011;40965;52.368;9.712;2023-04-15T02:09:22;8.43;;;5.60;;
55067;SDS011;40965;52.368;9.712;2023-04-15T02:11:49;8.18;;;5.90;;
55067;SDS011;40965;52.368;9.712;2023-04-15T02:14:17;11.30;;;6.53;;
55067;SDS011;40965;52.368;9.712;2023-04-15T02:16:44;9.50;;;6.65;;
55067;SDS011;40965;52.368;9.712;2023-04-15T02:19:10;9.93;;;6.85;;
55067;SDS011;40965;52.368;9.712;2023-04-15T02:21:37;10.90;;;7.32;;
55067;SDS011;40965;52.368;9.712;2023-04-15T02:24:04;9.60;;;7.30;;
55067;SDS011;40965;52.368;9.712;2023-04-15T02:26:31;15.10;;;8.15;;
55067;SDS011;40965;52.368;9.712;2023-04-15T02:28:58;12.27;;;8.23;;
55067;SDS011;40965;52.368;9.712;2023-04-15T02:31:25;8.73;;;7.25;;
55067;SDS011;40965;52.368;9.712;2023-04-15T02:33:51;14.02;;;7.85;;
55067;SDS011;40965;52.368;9.712;2023-04-15T02:36:18;10.65;;;7.35;;
55067;SDS011;40965;52.368;9.712;2023-04-15T02:38:45;11.57;;;7.45;;
55067;SDS011;40965;52.368;9.712;2023-04-15T02:41:11;10.10;;;7.32;;
55067;SDS011;40965;52.368;9.712;2023-04-15T02:43:38;11.52;;;7.65;;
55067;SDS011;40965;52.368;9.712;2023-04-15T02:46:05;11.48;;;7.55;;
55067;SDS011;40965;52.368;9.712;2023-04-15T02:48:32;11.02;;;7.40;;
55067;SDS011;40965;52.368;9.712;2023-04-15T02:51:12;10.23;;;7.70;;
55067;SDS011;40965;52.368;9.712;2023-04-15T02:53:43;10.23;;;7.13;;
55067;SDS011;40965;52.368;9.712;2023-04-15T02:56:11;10.57;;;7.50;;
55067;SDS011;40965;52.368;9.712;2023-04-15T02:58:39;11.00;;;8.48;;
55067;SDS011;40965;52.368;9.712;2023-04-15T03:01:06;11.48;;;7.78;;
55067;SDS011;40965;52.368;9.712;2023-04-15T03:03:33;16.02;;;10.25;;
55067;SDS011;40965;52.368;9.712;2023-04-15T03:06:00;12.68;;;7.63;;
55067;SDS011;40965;52.368;9.712;2023-04-15T03:08:26;10.15;;;8.13;;
55067;SDS011;40965;52.368;9.712;2023-04-15T03:10:53;10.40;;;7.78;;
55067;SDS011;40965;52.368;9.712;2023-04-15T03:13:19;12.20;;;8.68;;
55067;SDS011;40965;52.368;9.712;2023-04-15T03:15:46;12.00;;;9.05;;
55067;SDS011;40965;52.368;9.712;2023-04-15T03:18:13;13.20;;;9.25;;
55067;SDS011;40965;52.368;9.712;2023-04-15T03:20:39;13.40;;;9.05;;
55067;SDS011;40965;52.368;9.712;2023-04-15T03:23:06;12.65;;;9.35;;
55067;SDS011;40965;52.368;9.712;2023-04-15T03:25:32;17.10;;;9.00;;
55067;SDS011;40965;52.368;9.712;2023-04-15T03:27:59;13.20;;;9.18;;
55067;SDS011;40965;52.368;9.712;2023-04-15T03:30:25;10.27;;;8.50;;
55067;SDS011;40965;52.368;9.712;2023-04-15T03:32:52;17.88;;;10.05;;
55067;SDS011;40965;52.368;9.712;2023-04-15T03:35:19;18.63;;;11.48;;
55067;SDS011;40965;52.368;9.712;2023-04-15T03:37:45;16.50;;;11.40;;
55067;SDS011;40965;52.368;9.712;2023-04-15T03:40:13;16.65;;;10.77;;
55067;SDS011;40965;52.368;9.712;2023-04-15T03:42:39;18.17;;;12.18;;
55067;SDS011;40965;52.368;9.712;2023-04-15T03:45:06;15.90;;;10.38;;
55067;SDS011;40965;52.368;9.712;2023-04-15T03:47:33;15.07;;;10.45;;
55067;SDS011;40965;52.368;9.712;2023-04-15T03:49:59;14.60;;;10.75;;
55067;SDS011;40965;52.368;9.712;2023-04-15T03:52:26;15.18;;;9.85;;
55067;SDS011;40965;52.368;9.712;2023-04-15T03:54:52;19.50;;;11.82;;
55067;SDS011;40965;52.368;9.712;2023-04-15T03:57:19;16.55;;;11.55;;
55067;SDS011;40965;52.368;9.712;2023-04-15T03:59:47;14.27;;;10.40;;
55067;SDS011;40965;52.368;9.712;2023-04-15T04:02:14;19.13;;;12.02;;
55067;SDS011;40965;52.368;9.712;2023-04-15T04:04:41;19.33;;;12.35;;
55067;SDS011;40965;52.368;9.712;2023-04-15T04:07:07;19.85;;;12.57;;
55067;SDS011;40965;52.368;9.712;2023-04-15T04:09:34;17.30;;;12.35;;
55067;SDS011;40965;52.368;9.712;2023-04-15T04:12:12;16.38;;;11.77;;
55067;SDS011;40965;52.368;9.712;2023-04-15T04:14:38;17.55;;;12.50;;
55067;SDS011;40965;52.368;9.712;2023-04-15T04:17:05;19.33;;;12.45;;
55067;SDS011;40965;52.368;9.712;2023-04-15T04:19:31;17.52;;;12.43;;
55067;SDS011;40965;52.368;9.712;2023-04-15T04:21:58;17.73;;;12.77;;
55067;SDS011;40965;52.368;9.712;2023-04-15T04:24:24;20.58;;;13.57;;
55067;SDS011;40965;52.368;9.712;2023-04-15T04:26:51;23.00;;;13.27;;
55067;SDS011;40965;52.368;9.712;2023-04-15T04:29:17;19.67;;;12.48;;
55067;SDS011;40965;52.368;9.712;2023-04-15T04:31:44;23.30;;;13.75;;
55067;SDS011;40965;52.368;9.712;2023-04-15T04:34:12;20.08;;;12.80;;
55067;SDS011;40965;52.368;9.712;2023-04-15T04:36:39;18.40;;;12.73;;
55067;SDS011;40965;52.368;9.712;2023-04-15T04:39:05;23.00;;;14.98;;
55067;SDS011;40965;52.368;9.712;2023-04-15T04:41:32;23.08;;;13.63;;
55067;SDS011;40965;52.368;9.712;2023-04-15T04:43:58;20.42;;;13.75;;
55067;SDS011;40965;52.368;9.712;2023-04-15T04:46:25;20.27;;;13.00;;
55067;SDS011;40965;52.368;9.712;2023-04-15T04:48:51;22.55;;;14.27;;
55067;SDS011;40965;52.368;9.712;2023-04-15T04:51:18;19.83;;;13.20;;
55067;SDS011;40965;52.368;9.712;2023-04-15T04:53:44;22.30;;;14.45;;
55067;SDS011;40965;52.368;9.712;2023-04-15T04:56:11;19.35;;;13.15;;
55067;SDS011;40965;52.368;9.712;2023-04-15T04:58:37;23.35;;;15.40;;
55067;SDS011;40965;52.368;9.712;2023-04-15T05:01:04;23.42;;;14.25;;
55067;SDS011;40965;52.368;9.712;2023-04-15T05:03:30;21.85;;;13.60;;
55067;SDS011;40965;52.368;9.712;2023-04-15T05:05:57;22.95;;;14.20;;
55067;SDS011;40965;52.368;9.712;2023-04-15T05:08:23;23.35;;;14.15;;
55067;SDS011;40965;52.368;9.712;2023-04-15T05:10:50;19.15;;;11.70;;
55067;SDS011;40965;52.368;9.712;2023-04-15T05:13:16;21.70;;;14.35;;
55067;SDS011;40965;52.368;9.712;2023-04-15T05:15:43;26.70;;;14.38;;
55067;SDS011;40965;52.368;9.712;2023-04-15T05:18:09;20.98;;;13.57;;
55067;SDS011;40965;52.368;9.712;2023-04-15T05:20:36;25.08;;;14.50;;
55067;SDS011;40965;52.368;9.712;2023-04-15T05:23:02;19.63;;;12.27;;
55067;SDS011;40965;52.368;9.712;2023-04-15T05:25:29;24.75;;;14.93;;
55067;SDS011;40965;52.368;9.712;2023-04-15T05:27:56;22.73;;;13.02;;
55067;SDS011;40965;52.368;9.712;2023-04-15T05:30:23;21.90;;;14.07;;
55067;SDS011;40965;52.368;9.712;2023-04-15T05:32:49;20.60;;;12.93;;
55067;SDS011;40965;52.368;9.712;2023-04-15T05:35:16;20.83;;;13.70;;
55067;SDS011;40965;52.368;9.712;2023-04-15T05:37:43;22.15;;;14.43;;
55067;SDS011;40965;52.368;9.712;2023-04-15T05:40:11;21.38;;;13.30;;
55067;SDS011;40965;52.368;9.712;2023-04-15T05:42:38;21.75;;;13.95;;
55067;SDS011;40965;52.368;9.712;2023-04-15T05:45:05;22.00;;;14.18;;
55067;SDS011;40965;52.368;9.712;2023-04-15T05:47:34;20.38;;;13.55;;
55067;SDS011;40965;52.368;9.712;2023-04-15T05:50:01;21.23;;;12.45;;
55067;SDS011;40965;52.368;9.712;2023-04-15T05:52:29;21.70;;;13.63;;
55067;SDS011;40965;52.368;9.712;2023-04-15T05:54:57;21.95;;;13.65;;
55067;SDS011;40965;52.368;9.712;2023-04-15T05:57:23;18.35;;;12.77;;
55067;SDS011;40965;52.368;9.712;2023-04-15T05:59:50;18.15;;;12.35;;
55067;SDS011;40965;52.368;9.712;2023-04-15T06:02:17;18.73;;;12.13;;
55067;SDS011;40965;52.368;9.712;2023-04-15T06:04:43;18.83;;;10.63;;
55067;SDS011;40965;52.368;9.712;2023-04-15T06:07:10;17.75;;;10.50;;
55067;SDS011;40965;52.368;9.712;2023-04-15T06:09:36;17.58;;;10.23;;
55067;SDS011;40965;52.368;9.712;2023-04-15T06:12:03;16.13;;;10.23;;
55067;SDS011;40965;52.368;9.712;2023-04-15T06:14:30;15.70;;;10.77;;
55067;SDS011;40965;52.368;9.712;2023-04-15T06:16:59;17.45;;;10.57;;
55067;SDS011;40965;52.368;9.712;2023-04-15T06:19:26;18.55;;;11.63;;
55067;SDS011;40965;52.368;9.712;2023-04-15T06:21:52;15.68;;;10.27;;
55067;SDS011;40965;52.368;9.712;2023-04-15T06:24:19;13.50;;;9.88;;
55067;SDS011;40965;52.368;9.712;2023-04-15T06:26:45;14.15;;;9.45;;
55067;SDS011;40965;52.368;9.712;2023-04-15T06:29:11;12.73;;;9.30;;
55067;SDS011;40965;52.368;9.712;2023-04-15T06:31:38;15.27;;;9.60;;
55067;SDS011;40965;52.368;9.712;2023-04-15T06:34:05;13.05;;;8.77;;
55067;SDS011;40965;52.368;9.712;2023-04-15T06:36:32;13.60;;;9.23;;
55067;SDS011;40965;52.368;9.712;2023-04-15T06:38:58;14.77;;;9.20;;
55067;SDS011;40965;52.368;9.712;2023-04-15T06:41:26;11.68;;;8.73;;
55067;SDS011;40965;52.368;9.712;2023-04-15T06:43:53;10.50;;;7.75;;
55067;SDS011;40965;52.368;9.712;2023-04-15T06:46:19;14.20;;;8.88;;
55067;SDS011;40965;52.368;9.712;2023-04-15T06:48:46;10.73;;;8.20;;
55067;SDS011;40965;52.368;9.712;2023-04-15T06:51:12;10.38;;;7.55;;
55067;SDS011;40965;52.368;9.712;2023-04-15T06:53:39;12.75;;;8.05;;
55067;SDS011;40965;52.368;9.712;2023-04-15T06:56:10;10.27;;;6.95;;
55067;SDS011;40965;52.368;9.712;2023-04-15T06:58:37;10.55;;;6.75;;
55067;SDS011;40965;52.368;9.712;2023-04-15T07:01:03;10.63;;;7.53;;
55067;SDS011;40965;52.368;9.712;2023-04-15T07:03:30;11.23;;;6.88;;
55067;SDS011;40965;52.368;9.712;2023-04-15T07:05:57;7.95;;;6.50;;
55067;SDS011;40965;52.368;9.712;2023-04-15T07:08:23;8.23;;;6.60;;
55067;SDS011;40965;52.368;9.712;2023-04-15T07:10:50;8.80;;;6.15;;
55067;SDS011;40965;52.368;9.712;2023-04-15T07:13:18;8.82;;;6.10;;
55067;SDS011;40965;52.368;9.712;2023-04-15T07:15:44;7.68;;;5.55;;
55067;SDS011;40965;52.368;9.712;2023-04-15T07:18:11;6.78;;;5.20;;
55067;SDS011;40965;52.368;9.712;2023-04-15T07:20:38;6.97;;;4.85;;
55067;SDS011;40965;52.368;9.712;2023-04-15T07:23:05;7.97;;;5.75;;
55067;SDS011;40965;52.368;9.712;2023-04-15T07:25:31;7.82;;;5.15;;
55067;SDS011;40965;52.368;9.712;2023-04-15T07:27:58;5.55;;;4.47;;
55067;SDS011;40965;52.368;9.712;2023-04-15T07:30:24;6.47;;;4.25;;
55067;SDS011;40965;52.368;9.712;2023-04-15T07:32:51;8.85;;;5.72;;
55067;SDS011;40965;52.368;9.712;2023-04-15T07:35:24;7.13;;;4.93;;
55067;SDS011;40965;52.368;9.712;2023-04-15T07:37:50;6.90;;;4.88;;
55067;SDS011;40965;52.368;9.712;2023-04-15T07:40:17;6.82;;;5.53;;
55067;SDS011;40965;52.368;9.712;2023-04-15T07:42:43;9.15;;;5.53;;
55067;SDS011;40965;52.368;9.712;2023-04-15T07:45:10;6.95;;;5.95;;
55067;SDS011;40965;52.368;9.712;2023-04-15T07:47:37;7.90;;;6.18;;
55067;SDS011;40965;52.368;9.712;2023-04-15T07:50:05;7.30;;;5.47;;
55067;SDS011;40965;52.368;9.712;2023-04-15T07:52:32;8.93;;;4.97;;
55067;SDS011;40965;52.368;9.712;2023-04-15T07:55:03;8.90;;;6.45;;
55067;SDS011;40965;52.368;9.712;2023-04-15T07:57:32;6.93;;;5.43;;
55067;SDS011;40965;52.368;9.712;2023-04-15T07:59:59;6.28;;;4.07;;
55067;SDS011;40965;52.368;9.712;2023-04-15T08:02:26;4.85;;;4.28;;
55067;SDS011;40965;52.368;9.712;2023-04-15T08:04:53;5.95;;;4.85;;
55067;SDS011;40965;52.368;9.712;2023-04-15T08:07:19;5.07;;;4.57;;
55067;SDS011;40965;52.368;9.712;2023-04-15T08:09:46;4.30;;;3.90;;
55067;SDS011;40965;52.368;9.712;2023-04-15T08:12:12;6.20;;;4.93;;
55067;SDS011;40965;52.368;9.712;2023-04-15T08:14:39;7.78;;;4.25;;
55067;SDS011;40965;52.368;9.712;2023-04-15T08:17:10;4.15;;;3.60;;
55067;SDS011;40965;52.368;9.712;2023-04-15T08:19:37;3.65;;;3.30;;
55067;SDS011;40965;52.368;9.712;2023-04-15T08:22:03;3.33;;;3.03;;
55067;SDS011;40965;52.368;9.712;2023-04-15T08:24:30;4.85;;;3.80;;
55067;SDS011;40965;52.368;9.712;2023-04-15T08:26:59;4.25;;;3.85;;
55067;SDS011;40965;52.368;9.712;2023-04-15T08:29:28;4.68;;;3.00;;
55067;SDS011;40965;52.368;9.712;2023-04-15T08:31:54;4.28;;;3.53;;
55067;SDS011;40965;52.368;9.712;2023-04-15T08:34:21;3.58;;;3.20;;
55067;SDS011;40965;52.368;9.712;2023-04-15T08:36:48;5.10;;;3.22;;
55067;SDS011;40965;52.368;9.712;2023-04-15T08:39:15;5.65;;;3.20;;
55067;SDS011;40965;52.368;9.712;2023-04-15T08:41:45;3.63;;;3.08;;
55067;SDS011;40965;52.368;9.712;2023-04-15T08:44:12;3.60;;;3.22;;
55067;SDS011;40965;52.368;9.712;2023-04-15T08:46:40;3.28;;;2.97;;
55067;SDS011;40965;52.368;9.712;2023-04-15T08:49:09;4.78;;;3.20;;
55067;SDS011;40965;52.368;9.712;2023-04-15T08:51:37;3.45;;;2.70;;
55067;SDS011;40965;52.368;9.712;2023-04-15T08:54:08;2.70;;;2.50;;
55067;SDS011;40965;52.368;9.712;2023-04-15T08:56:35;4.95;;;3.60;;
55067;SDS011;40965;52.368;9.712;2023-04-15T08:59:02;2.80;;;2.60;;
55067;SDS011;40965;52.368;9.712;2023-04-15T09:01:29;4.10;;;2.85;;
55067;SDS011;40965;52.368;9.712;2023-04-15T09:03:58;3.50;;;3.20;;
55067;SDS011;40965;52.368;9.712;2023-04-15T09:06:25;2.65;;;2.40;;
55067;SDS011;40965;52.368;9.712;2023-04-15T09:08:51;2.70;;;2.50;;
55067;SDS011;40965;52.368;9.712;2023-04-15T09:11:18;4.22;;;2.95;;
55067;SDS011;40965;52.368;9.712;2023-04-15T09:13:47;12.55;;;6.38;;
55067;SDS011;40965;52.368;9.712;2023-04-15T09:16:14;5.35;;;4.40;;
55067;SDS011;40965;52.368;9.712;2023-04-15T09:18:42;3.63;;;3.28;;
55067;SDS011;40965;52.368;9.712;2023-04-15T09:21:09;3.22;;;2.92;;
55067;SDS011;40965;52.368;9.712;2023-04-15T09:23:40;5.90;;;3.42;;
55067;SDS011;40965;52.368;9.712;2023-04-15T09:26:30;5.32;;;3.97;;
55067;SDS011;40965;52.368;9.712;2023-04-15T09:29:05;3.72;;;3.42;;
55067;SDS011;40965;52.368;9.712;2023-04-15T09:31:33;4.38;;;3.67;;
55067;SDS011;40965;52.368;9.712;2023-04-15T09:34:00;5.68;;;4.65;;
55067;SDS011;40965;52.368;9.712;2023-04-15T09:36:27;6.00;;;4.82;;
55067;SDS011;40965;52.368;9.712;2023-04-15T09:38:55;4.22;;;3.20;;
55067;SDS011;40965;52.368;9.712;2023-04-15T09:41:24;4.97;;;3.72;;
55067;SDS011;40965;52.368;9.712;2023-04-15T09:43:52;6.38;;;4.15;;
55067;SDS011;40965;52.368;9.712;2023-04-15T09:46:19;6.32;;;4.85;;
55067;SDS011;40965;52.368;9.712;2023-04-15T09:48:45;5.22;;;4.53;;
55067;SDS011;40965;52.368;9.712;2023-04-15T09:51:12;4.65;;;3.70;;
55067;SDS011;40965;52.368;9.712;2023-04-15T09:53:40;4.88;;;4.20;;
55067;SDS011;40965;52.368;9.712;2023-04-15T09:56:08;6.50;;;5.10;;
55067;SDS011;40965;52.368;9.712;2023-04-15T09:58:35;6.38;;;4.75;;
55067;SDS011;40965;52.368;9.712;2023-04-15T10:01:03;7.05;;;4.80;;
55067;SDS011;40965;52.368;9.712;2023-04-15T10:03:32;7.35;;;5.10;;
55067;SDS011;40965;52.368;9.712;2023-04-15T10:06:01;8.63;;;6.53;;
55067;SDS011;40965;52.368;9.712;2023-04-15T10:08:30;5.43;;;4.93;;
55067;SDS011;40965;52.368;9.712;2023-04-15T10:10:59;8.68;;;6.53;;
55067;SDS011;40965;52.368;9.712;2023-04-15T10:13:29;8.32;;;6.13;;
55067;SDS011;40965;52.368;9.712;2023-04-15T10:16:06;7.32;;;5.80;;
55067;SDS011;40965;52.368;9.712;2023-04-15T10:18:41;6.13;;;5.10;;
55067;SDS011;40965;52.368;9.712;2023-04-15T10:23:38;7.85;;;5.53;;
55067;SDS011;40965;52.368;9.712;2023-04-15T10:26:05;9.05;;;6.03;;
55067;SDS011;40965;52.368;9.712;2023-04-15T10:28:33;10.30;;;6.40;;
55067;SDS011;40965;52.368;9.712;2023-04-15T10:31:00;11.23;;;7.43;;
55067;SDS011;40965;52.368;9.712;2023-04-15T10:33:26;11.55;;;7.07;;
55067;SDS011;40965;52.368;9.712;2023-04-15T10:35:54;11.30;;;7.72;;
55067;SDS011;40965;52.368;9.712;2023-04-15T10:38:37;13.07;;;8.63;;
55067;SDS011;40965;52.368;9.712;2023-04-15T10:41:25;12.63;;;8.43;;
55067;SDS011;40965;52.368;9.712;2023-04-15T10:43:55;14.98;;;9.02;;
55067;SDS011;40965;52.368;9.712;2023-04-15T10:46:39;13.60;;;8.25;;
55067;SDS011;40965;52.368;9.712;2023-04-15T10:49:11;15.20;;;9.23;;
55067;SDS011;40965;52.368;9.712;2023-04-15T10:51:45;20.20;;;11.45;;
55067;SDS011;40965;52.368;9.712;2023-04-15T10:56:51;16.20;;;9.85;;
55067;SDS011;40965;52.368;9.712;2023-04-15T10:59:37;21.80;;;12.65;;
55067;SDS011;40965;52.368;9.712;2023-04-15T11:05:14;18.20;;;11.23;;
55067;SDS011;40965;52.368;9.712;2023-04-15T11:12:46;22.42;;;12.43;;
55067;SDS011;40965;52.368;9.712;2023-04-15T11:15:36;22.17;;;12.60;;
55067;SDS011;40965;52.368;9.712;2023-04-15T11:18:12;19.52;;;12.10;;
55067;SDS011;40965;52.368;9.712;2023-04-15T11:20:50;19.73;;;11.73;;
55067;SDS011;40965;52.368;9.712;2023-04-15T11:23:32;19.92;;;12.50;;
55067;SDS011;40965;52.368;9.712;2023-04-15T11:26:09;21.40;;;12.85;;
55067;SDS011;40965;52.368;9.712;2023-04-15T11:28:37;21.25;;;12.90;;
55067;SDS011;40965;52.368;9.712;2023-04-15T11:33:57;22.40;;;14.20;;
55067;SDS011;40965;52.368;9.712;2023-04-15T11:36:27;21.98;;;13.70;;
55067;SDS011;40965;52.368;9.712;2023-04-15T11:38:56;24.88;;;15.57;;
55067;SDS011;40965;52.368;9.712;2023-04-15T11:41:24;23.60;;;14.93;;
55067;SDS011;40965;52.368;9.712;2023-04-15T11:43:51;28.48;;;15.93;;
55067;SDS011;40965;52.368;9.712;2023-04-15T11:46:18;27.38;;;17.30;;
55067;SDS011;40965;52.368;9.712;2023-04-15T11:48:45;30.30;;;16.80;;
55067;SDS011;40965;52.368;9.712;2023-04-15T11:51:13;33.78;;;17.67;;
55067;SDS011;40965;52.368;9.712;2023-04-15T11:53:47;28.17;;;17.50;;
55067;SDS011;40965;52.368;9.712;2023-04-15T11:56:16;34.38;;;19.52;;
55067;SDS011;40965;52.368;9.712;2023-04-15T11:58:46;32.53;;;17.88;;
55067;SDS011;40965;52.368;9.712;2023-04-15T12:01:14;40.47;;;20.25;;
55067;SDS011;40965;52.368;9.712;2023-04-15T12:03:42;34.47;;;20.17;;
55067;SDS011;40965;52.368;9.712;2023-04-15T12:08:57;33.25;;;20.38;;
55067;SDS011;40965;52.368;9.712;2023-04-15T12:11:38;34.25;;;21.10;;
55067;SDS011;40965;52.368;9.712;2023-04-15T12:14:19;35.53;;;20.67;;
55067;SDS011;40965;52.368;9.712;2023-04-15T12:17:00;40.55;;;22.42;;
55067;SDS011;40965;52.368;9.712;2023-04-15T12:19:34;37.70;;;22.13;;
55067;SDS011;40965;52.368;9.712;2023-04-15T12:22:03;37.58;;;21.80;;
55067;SDS011;40965;52.368;9.712;2023-04-15T12:24:35;39.22;;;21.80;;
55067;SDS011;40965;52.368;9.712;2023-04-15T12:27:24;43.50;;;22.75;;
55067;SDS011;40965;52.368;9.712;2023-04-15T12:29:56;40.60;;;22.27;;
55067;SDS011;40965;52.368;9.712;2023-04-15T12:32:33;39.83;;;22.80;;
55067;SDS011;40965;52.368;9.712;2023-04-15T12:35:01;43.08;;;25.05;;
55067;SDS011;40965;52.368;9.712;2023-04-15T12:37:27;37.28;;;23.08;;
55067;SDS011;40965;52.368;9.712;2023-04-15T12:39:54;40.28;;;24.67;;
55067;SDS011;40965;52.368;9.712;2023-04-15T12:42:20;44.67;;;25.05;;
55067;SDS011;40965;52.368;9.712;2023-04-15T12:44:47;50.13;;;28.40;;
55067;SDS011;40965;52.368;9.712;2023-04-15T12:47:13;44.85;;;25.77;;
55067;SDS011;40965;52.368;9.712;2023-04-15T12:49:40;48.25;;;27.42;;
55067;SDS011;40965;52.368;9.712;2023-04-15T12:52:06;44.35;;;24.58;;
55067;SDS011;40965;52.368;9.712;2023-04-15T12:54:33;43.80;;;24.73;;
55067;SDS011;40965;52.368;9.712;2023-04-15T12:57:00;43.50;;;25.35;;
55067;SDS011;40965;52.368;9.712;2023-04-15T12:59:27;51.10;;;27.35;;
55067;SDS011;40965;52.368;9.712;2023-04-15T13:01:53;42.83;;;24.95;;
55067;SDS011;40965;52.368;9.712;2023-04-15T13:04:20;41.72;;;25.58;;
55067;SDS011;40965;52.368;9.712;2023-04-15T13:06:47;46.30;;;27.20;;
55067;SDS011;40965;52.368;9.712;2023-04-15T13:09:13;42.17;;;23.35;;
55067;SDS011;40965;52.368;9.712;2023-04-15T13:11:40;40.65;;;26.05;;
55067;SDS011;40965;52.368;9.712;2023-04-15T13:14:09;42.40;;;24.08;;
55067;SDS011;40965;52.368;9.712;2023-04-15T13:16:36;45.63;;;24.77;;
55067;SDS011;40965;52.368;9.712;2023-04-15T13:19:03;43.28;;;26.40;;
55067;SDS011;40965;52.368;9.712;2023-04-15T13:21:30;44.75;;;27.40;;
55067;SDS011;40965;52.368;9.712;2023-04-15T13:23:59;39.85;;;24.52;;
55067;SDS011;40965;52.368;9.712;2023-04-15T13:26:25;41.88;;;25.08;;
55067;SDS011;40965;52.368;9.712;2023-04-15T13:28:52;44.50;;;25.33;;
55067;SDS011;40965;52.368;9.712;2023-04-15T13:31:18;41.05;;;26.73;;
55067;SDS011;40965;52.368;9.712;2023-04-15T13:33:45;41.70;;;26.30;;
55067;SDS011;40965;52.368;9.712;2023-04-15T13:36:11;41.83;;;24.00;;
55067;SDS011;40965;52.368;9.712;2023-04-15T13:38:38;38.50;;;24.10;;
55067;SDS011;40965;52.368;9.712;2023-04-15T13:41:04;36.30;;;22.27;;
55067;SDS011;40965;52.368;9.712;2023-04-15T13:43:31;41.10;;;23.20;;
55067;SDS011;40965;52.368;9.712;2023-04-15T13:45:58;36.20;;;21.80;;
55067;SDS011;40965;52.368;9.712;2023-04-15T13:48:24;32.75;;;21.92;;
55067;SDS011;40965;52.368;9.712;2023-04-15T13:50:51;35.78;;;21.13;;
55067;SDS011;40965;52.368;9.712;2023-04-15T13:53:17;32.13;;;21.05;;
55067;SDS011;40965;52.368;9.712;2023-04-15T13:55:44;29.13;;;19.60;;
55067;SDS011;40965;52.368;9.712;2023-04-15T13:58:10;23.80;;;16.58;;
55067;SDS011;40965;52.368;9.712;2023-04-15T14:00:38;27.55;;;17.63;;
55067;SDS011;40965;52.368;9.712;2023-04-15T14:03:04;28.45;;;17.58;;
55067;SDS011;40965;52.368;9.712;2023-04-15T14:05:31;22.42;;;17.08;;
55067;SDS011;40965;52.368;9.712;2023-04-15T14:07:58;23.65;;;16.95;;
55067;SDS011;40965;52.368;9.712;2023-04-15T14:10:25;21.33;;;15.95;;
55067;SDS011;40965;52.368;9.712;2023-04-15T14:12:51;21.75;;;17.05;;
55067;SDS011;40965;52.368;9.712;2023-04-15T14:15:18;19.23;;;15.43;;
55067;SDS011;40965;52.368;9.712;2023-04-15T14:17:44;19.95;;;15.18;;
55067;SDS011;40965;52.368;9.712;2023-04-15T14:20:11;20.23;;;15.60;;
55067;SDS011;40965;52.368;9.712;2023-04-15T14:22:37;18.85;;;15.10;;
55067;SDS011;40965;52.368;9.712;2023-04-15T14:25:05;22.08;;;16.20;;
55067;SDS011;40965;52.368;9.712;2023-04-15T14:27:32;15.57;;;13.00;;
55067;SDS011;40965;52.368;9.712;2023-04-15T14:29:58;19.38;;;14.73;;
55067;SDS011;40965;52.368;9.712;2023-04-15T14:32:25;17.70;;;14.38;;
55067;SDS011;40965;52.368;9.712;2023-04-15T14:34:51;20.50;;;15.32;;
55067;SDS011;40965;52.368;9.712;2023-04-15T14:37:19;21.70;;;15.70;;
55067;SDS011;40965;52.368;9.712;2023-04-15T14:39:45;17.70;;;13.85;;
55067;SDS011;40965;52.368;9.712;2023-04-15T14:42:12;19.50;;;15.32;;
55067;SDS011;40965;52.368;9.712;2023-04-15T14:44:38;19.83;;;14.63;;
55067;SDS011;40965;52.368;9.712;2023-04-15T14:47:05;22.08;;;15.35;;
55067;SDS011;40965;52.368;9.712;2023-04-15T14:49:32;20.30;;;13.98;;
55067;SDS011;40965;52.368;9.712;2023-04-15T14:51:58;19.00;;;14.18;;
55067;SDS011;40965;52.368;9.712;2023-04-15T14:54:25;22.05;;;15.38;;
55067;SDS011;40965;52.368;9.712;2023-04-15T14:56:51;15.07;;;12.25;;